Time;durP1;ratioP1;P1;durP2;ratioP2;P2;SDS_P1;SDS_P2;PMS_P1;PMS_P2;Temp;Humidity;BMP_temperature;BMP_pressure;BME280_temperature;BME280_humidity;BME280_pressure;Samples;Min_cycle;Max_cycle;Signal;HPM_P1;HPM_P2
2023/03/05 00:00:50;;;;;;;9.60;2.38;;;;;;;3.25;100.00;102088.47;5122102;27;20047;-49
2023/03/05 00:03:18;;;;;;;9.98;3.05;;;;;;;3.22;100.00;102081.59;5121722;27;20069;-52
2023/03/05 00:05:48;;;;;;;9.00;2.53;;;;;;;3.25;100.00;102083.28;5122328;27;20035;-52
2023/03/05 00:08:16;;;;;;;9.38;2.50;;;;;;;3.31;100.00;102082.31;5119200;27;20059;-51
2023/03/05 00:10:44;;;;;;;10.20;2.83;;;;;;;3.28;100.00;102080.63;5112245;27;20054;-49
2023/03/05 00:13:12;;;;;;;9.48;2.83;;;;;;;3.27;100.00;102078.91;5127123;27;20538;-48
2023/03/05 00:15:41;;;;;;;14.27;3.25;;;;;;;3.27;100.00;102078.06;5115767;27;20059;-51
2023/03/05 00:18:09;;;;;;;8.48;2.42;;;;;;;3.29;100.00;102076.31;5118249;27;20055;-51
2023/03/05 00:20:37;;;;;;;10.52;2.58;;;;;;;3.26;100.00;102066.81;5116412;27;20038;-52
2023/03/05 00:23:07;;;;;;;7.70;2.33;;;;;;;3.24;100.00;102065.94;5114724;27;20053;-50
2023/03/05 00:25:36;;;;;;;9.93;2.20;;;;;;;3.24;100.00;102071.16;5120505;27;20440;-52
2023/03/05 00:28:07;;;;;;;10.68;2.50;;;;;;;3.24;100.00;102067.72;5127250;27;20038;-48
2023/03/05 00:30:35;;;;;;;11.15;2.45;;;;;;;3.28;100.00;102061.56;5122318;27;20051;-51
2023/03/05 00:33:04;;;;;;;12.48;2.85;;;;;;;3.22;100.00;102055.56;5119826;27;20044;-50
2023/03/05 00:35:32;;;;;;;11.75;2.88;;;;;;;3.26;100.00;102059.00;5114989;27;20156;-53
2023/03/05 00:38:02;;;;;;;11.55;2.35;;;;;;;3.22;100.00;102063.38;5119777;27;20035;-53
2023/03/05 00:40:37;;;;;;;12.65;2.55;;;;;;;3.27;100.00;102060.69;5127587;27;20515;-46
2023/03/05 00:43:06;;;;;;;7.63;2.38;;;;;;;3.27;100.00;102062.44;5118836;27;20064;-49
2023/03/05 00:45:34;;;;;;;12.52;2.75;;;;;;;3.28;100.00;102054.63;5121270;27;20043;-50
2023/03/05 00:48:03;;;;;;;9.57;2.97;;;;;;;3.27;100.00;102057.25;5116055;27;20437;-48
2023/03/05 00:50:31;;;;;;;11.60;2.47;;;;;;;3.21;100.00;102048.66;5122176;27;20076;-48
2023/03/05 00:52:59;;;;;;;11.60;2.50;;;;;;;3.22;100.00;102044.34;5118956;27;20092;-49
2023/03/05 00:55:27;;;;;;;11.23;2.88;;;;;;;3.22;100.00;102045.19;5122140;27;20043;-50
2023/03/05 00:57:57;;;;;;;14.07;4.10;;;;;;;3.24;100.00;102042.56;5127926;27;20097;-47
2023/03/05 01:00:25;;;;;;;10.30;2.47;;;;;;;3.28;100.00;102046.81;5119204;27;20066;-48
2023/03/05 01:02:53;;;;;;;12.73;2.75;;;;;;;3.32;100.00;102050.25;5125053;27;20134;-47
2023/03/05 01:05:21;;;;;;;9.18;2.55;;;;;;;3.34;100.00;102036.34;5125831;27;20084;-48
2023/03/05 01:07:53;;;;;;;7.80;2.55;;;;;;;3.32;100.00;102042.44;5129066;27;20054;-49
2023/03/05 01:10:25;;;;;;;9.95;2.03;;;;;;;3.27;100.00;102045.09;5132531;27;20056;-50
2023/03/05 01:12:53;;;;;;;6.97;2.30;;;;;;;3.10;100.00;102041.91;5113035;28;20056;-48
2023/03/05 01:15:23;;;;;;;9.55;2.13;;;;;;;3.07;100.00;102040.22;5113032;28;20075;-48
2023/03/05 01:17:51;;;;;;;8.45;2.10;;;;;;;3.02;100.00;102035.06;5112806;28;20097;-49
2023/03/05 01:20:22;;;;;;;9.32;2.67;;;;;;;3.04;100.00;102024.66;5110032;28;20379;-48
2023/03/05 01:22:50;;;;;;;7.38;1.75;;;;;;;3.05;100.00;102013.38;5113617;28;20050;-48
2023/03/05 01:25:18;;;;;;;10.80;2.90;;;;;;;3.04;100.00;102012.53;5133290;27;20067;-50
2023/03/05 01:27:47;;;;;;;8.90;2.67;;;;;;;3.03;100.00;102008.19;5130571;27;20035;-49
2023/03/05 01:30:16;;;;;;;9.57;2.10;;;;;;;3.10;100.00;102005.53;5113039;28;20063;-49
2023/03/05 01:32:45;;;;;;;7.63;2.22;;;;;;;3.09;100.00;101998.59;5112481;28;20052;-51
2023/03/05 01:35:18;;;;;;;10.48;2.13;;;;;;;3.08;100.00;101995.16;5112406;28;20379;-52
2023/03/05 01:37:45;;;;;;;;;;;;;;;3.11;100.00;101989.91;5117252;28;20084;-53
2023/03/05 01:40:17;;;;;;;5.18;1.77;;;;;;;3.12;100.00;101991.63;5126523;28;19919;-52
2023/03/05 01:42:46;;;;;;;12.48;2.85;;;;;;;3.14;100.00;101987.25;5123989;28;20074;-52
2023/03/05 01:45:17;;;;;;;9.50;2.22;;;;;;;3.11;100.00;101983.81;5125516;28;20044;-50
2023/03/05 01:47:46;;;;;;;10.18;2.20;;;;;;;3.13;100.00;101979.47;5125788;28;20389;-50
2023/03/05 01:50:19;;;;;;;10.10;2.75;;;;;;;3.09;100.00;101978.66;5125423;27;20075;-49
2023/03/05 01:52:53;;;;;;;8.40;2.25;;;;;;;3.09;100.00;101980.41;5121111;28;20047;-53
2023/03/05 01:55:23;;;;;;;9.52;2.33;;;;;;;3.08;100.00;101973.47;5122090;28;20028;-53
2023/03/05 01:57:55;;;;;;;10.38;2.28;;;;;;;3.04;100.00;101973.53;5126168;28;20039;-51
2023/03/05 02:00:29;;;;;;;12.43;2.65;;;;;;;3.07;100.00;101966.56;5118633;28;20092;-53
2023/03/05 02:03:03;;;;;;;10.20;3.03;;;;;;;3.08;100.00;101960.47;5119766;28;20035;-50
2023/03/05 02:05:34;;;;;;;9.73;2.22;;;;;;;3.08;100.00;101957.88;5116053;28;20054;-51
2023/03/05 02:08:05;;;;;;;10.50;2.45;;;;;;;3.10;100.00;101956.13;5119538;28;20044;-49
2023/03/05 02:10:36;;;;;;;8.98;2.17;;;;;;;3.10;100.00;101946.59;5127164;27;20099;-48
2023/03/05 02:13:07;;;;;;;7.05;1.92;;;;;;;3.12;100.00;101946.56;5122103;27;20035;-48
2023/03/05 02:15:35;;;;;;;12.60;2.22;;;;;;;3.11;100.00;101939.63;5123622;28;20054;-49
2023/03/05 02:18:06;;;;;;;11.18;2.05;;;;;;;3.11;100.00;101929.22;5126218;28;20100;-52
2023/03/05 02:20:45;;;;;;;12.50;2.50;;;;;;;3.12;100.00;101929.22;5115345;28;20046;-49
2023/03/05 02:23:16;;;;;;;7.43;2.08;;;;;;;3.10;100.00;101925.78;5112337;28;20050;-48
2023/03/05 02:25:44;;;;;;;5.80;1.73;;;;;;;3.11;100.00;101934.44;5118017;28;20027;-48
2023/03/05 02:28:18;;;;;;;8.63;2.03;;;;;;;3.08;100.00;101922.38;5119849;28;20070;-48
2023/03/05 02:30:46;;;;;;;9.80;2.40;;;;;;;3.08;100.00;101921.50;5118699;27;20448;-49
2023/03/05 02:33:14;;;;;;;9.73;2.33;;;;;;;3.07;100.00;101917.16;5128801;27;20043;-49
2023/03/05 02:35:43;;;;;;;6.32;1.80;;;;;;;3.10;100.00;101914.53;5128017;27;20516;-49
2023/03/05 02:38:12;;;;;;;11.00;2.90;;;;;;;3.06;100.00;101911.13;5120932;27;20075;-48
2023/03/05 02:40:45;;;;;;;9.45;1.80;;;;;;;3.06;100.00;101908.53;5121595;27;20031;-49
2023/03/05 02:43:13;;;;;;;8.52;1.90;;;;;;;2.99;100.00;101899.13;5124578;27;20140;-50
2023/03/05 02:45:44;;;;;;;8.65;1.77;;;;;;;2.98;100.00;101900.84;5120035;27;20496;-49
2023/03/05 02:48:14;;;;;;;8.02;2.00;;;;;;;3.00;100.00;101899.09;5126595;27;20032;-48
2023/03/05 02:50:43;;;;;;;8.43;2.00;;;;;;;3.01;100.00;101889.53;5121114;27;20036;-49
2023/03/05 02:53:11;;;;;;;10.32;2.92;;;;;;;3.03;100.00;101896.44;5122869;27;20560;-50
2023/03/05 02:55:42;;;;;;;8.85;1.77;;;;;;;3.08;100.00;101891.19;5119301;27;20074;-51
2023/03/05 02:58:11;;;;;;;9.23;2.20;;;;;;;3.03;100.00;101882.59;5127087;27;20043;-52
2023/03/05 03:00:39;;;;;;;6.53;1.88;;;;;;;3.04;100.00;101889.47;5127137;27;20039;-50
2023/03/05 03:03:08;;;;;;;9.75;2.80;;;;;;;2.98;100.00;101881.81;5120175;27;20582;-51
2023/03/05 03:05:36;;;;;;;6.30;2.08;;;;;;;3.01;100.00;101882.63;5117060;27;20035;-50
2023/03/05 03:08:07;;;;;;;9.70;1.70;;;;;;;3.01;100.00;101871.34;5119272;27;20042;-52
2023/03/05 03:10:35;;;;;;;10.73;2.67;;;;;;;2.98;100.00;101868.81;5123197;27;20066;-51
2023/03/05 03:13:04;;;;;;;11.43;2.22;;;;;;;2.96;100.00;101862.75;5130438;27;20048;-52
2023/03/05 03:15:33;;;;;;;8.65;2.17;;;;;;;2.95;100.00;101855.88;5121464;27;20405;-53
2023/03/05 03:18:01;;;;;;;9.15;2.38;;;;;;;2.98;100.00;101858.41;5132217;27;20062;-53
2023/03/05 03:20:29;;;;;;;10.35;2.25;;;;;;;2.95;100.00;101856.72;5125065;27;20127;-52
2023/03/05 03:22:57;;;;;;;13.18;2.55;;;;;;;2.95;100.00;101842.88;5124265;27;20069;-52
2023/03/05 03:25:26;;;;;;;8.10;2.22;;;;;;;2.93;100.00;101842.91;5124544;27;20104;-54
2023/03/05 03:27:54;;;;;;;12.65;2.83;;;;;;;2.90;100.00;101837.75;5117846;27;20050;-53
2023/03/05 03:30:22;;;;;;;10.18;2.67;;;;;;;2.91;100.00;101836.88;5123453;27;20100;-50
2023/03/05 03:32:52;;;;;;;9.65;2.75;;;;;;;2.91;100.00;101841.22;5117542;27;20079;-50
2023/03/05 03:35:20;;;;;;;9.52;2.47;;;;;;;2.95;100.00;101841.13;5123222;27;20039;-48
2023/03/05 03:37:48;;;;;;;10.98;2.58;;;;;;;2.93;100.00;101834.25;5122057;27;20035;-50
2023/03/05 03:40:17;;;;;;;10.43;3.13;;;;;;;2.94;100.00;101836.81;5122636;27;20493;-49
2023/03/05 03:42:45;;;;;;;12.63;2.80;;;;;;;2.95;100.00;101832.50;5122089;27;20043;-51
2023/03/05 03:45:13;;;;;;;11.80;3.10;;;;;;;2.94;100.00;101823.81;5120743;27;20427;-49
2023/03/05 03:47:41;;;;;;;10.55;3.25;;;;;;;2.99;100.00;101822.00;5133776;27;20046;-49
2023/03/05 03:50:12;;;;;;;12.23;2.90;;;;;;;2.95;100.00;101822.09;5130960;27;20092;-50
2023/03/05 03:52:40;;;;;;;11.13;3.22;;;;;;;2.94;100.00;101828.16;5133957;27;20047;-49
2023/03/05 03:55:09;;;;;;;13.20;3.00;;;;;;;2.94;100.00;101823.81;5135048;27;20174;-51
2023/03/05 03:57:37;;;;;;;9.77;2.90;;;;;;;2.92;100.00;101819.53;5129623;27;20116;-49
2023/03/05 04:00:10;;;;;;;8.73;2.95;;;;;;;2.93;100.00;101809.13;5133328;27;20050;-50
2023/03/05 04:02:41;;;;;;;10.20;3.15;;;;;;;2.93;100.00;101808.25;5116664;27;20039;-49
2023/03/05 04:05:11;;;;;;;11.25;3.65;;;;;;;2.91;100.00;101799.66;5131479;27;20508;-49
2023/03/05 04:07:39;;;;;;;10.13;3.20;;;;;;;2.89;100.00;101802.28;5130570;27;20043;-49
2023/03/05 04:10:08;;;;;;;8.38;3.20;;;;;;;2.90;100.00;101805.72;5132909;27;20112;-52
2023/03/05 04:12:36;;;;;;;9.98;3.17;;;;;;;2.92;100.00;101803.94;5131297;27;20061;-51
2023/03/05 04:15:08;;;;;;;12.05;3.58;;;;;;;2.88;100.00;101805.75;5121681;27;20505;-49
2023/03/05 04:17:36;;;;;;;8.93;3.40;;;;;;;2.88;100.00;101801.41;5122605;27;20051;-52
2023/03/05 04:20:09;;;;;;;12.00;3.28;;;;;;;2.89;100.00;101797.06;5117807;27;20043;-50
2023/03/05 04:22:38;;;;;;;14.02;3.80;;;;;;;2.87;100.00;101791.88;5118158;27;20490;-52
2023/03/05 04:25:08;;;;;;;12.98;4.97;;;;;;;2.89;100.00;101791.88;5120836;27;20804;-52
2023/03/05 04:27:38;;;;;;;10.93;3.40;;;;;;;2.88;100.00;101792.75;5119180;27;20028;-50
2023/03/05 04:30:08;;;;;;;15.00;3.30;;;;;;;2.83;100.00;101790.22;5125536;27;20039;-51
2023/03/05 04:32:36;;;;;;;11.73;4.03;;;;;;;2.79;100.00;101787.72;5120085;27;20039;-48
2023/03/05 04:35:05;;;;;;;12.93;3.60;;;;;;;2.76;100.00;101791.22;5124148;27;20035;-50
2023/03/05 04:37:33;;;;;;;9.48;3.10;;;;;;;2.77;100.00;101784.28;5120856;27;20039;-53
2023/03/05 04:40:08;;;;;;;13.35;3.55;;;;;;;2.78;100.00;101786.00;5117801;27;20386;-52
2023/03/05 04:42:36;;;;;;;13.20;3.72;;;;;;;2.72;100.00;101789.56;5115633;27;20131;-52
2023/03/05 04:45:05;;;;;;;8.88;3.25;;;;;;;2.77;100.00;101785.16;5132855;27;20051;-53
2023/03/05 04:47:33;;;;;;;9.63;3.13;;;;;;;2.75;100.00;101786.91;5117701;27;20088;-53
2023/03/05 04:50:02;;;;;;;13.80;2.85;;;;;;;2.77;100.00;101781.66;5114503;27;20066;-53
2023/03/05 04:52:30;;;;;;;8.27;2.90;;;;;;;2.82;100.00;101783.34;5117839;27;20435;-52
2023/03/05 04:54:58;;;;;;;10.43;2.80;;;;;;;2.77;100.00;101766.97;5125452;27;20080;-48
2023/03/05 04:57:27;;;;;;;7.93;2.45;;;;;;;2.77;100.00;101769.56;5125768;27;20116;-51
2023/03/05 04:59:55;;;;;;;10.88;2.80;;;;;;;2.77;100.00;101766.09;5125176;27;20047;-50
2023/03/05 05:02:23;;;;;;;10.20;2.63;;;;;;;2.77;100.00;101766.09;5120077;27;20109;-48
2023/03/05 05:04:53;;;;;;;10.20;3.00;;;;;;;2.75;100.00;101763.50;5119435;27;20046;-49
2023/03/05 05:07:23;;;;;;;11.10;2.75;;;;;;;2.77;100.00;101760.88;5122173;27;20374;-48
2023/03/05 05:09:51;;;;;;;8.75;2.50;;;;;;;2.77;100.00;101753.97;5131977;27;20051;-52
2023/03/05 05:12:19;;;;;;;9.80;2.38;;;;;;;2.78;100.00;101760.88;5133643;27;20046;-49
2023/03/05 05:14:49;;;;;;;10.00;2.63;;;;;;;2.82;100.00;101757.34;5108943;28;20104;-48
2023/03/05 05:17:17;;;;;;;12.55;2.50;;;;;;;2.80;100.00;101755.66;5110948;28;20118;-48
2023/03/05 05:19:45;;;;;;;8.80;2.15;;;;;;;2.78;100.00;101758.28;5113003;28;20118;-48
2023/03/05 05:22:16;;;;;;;7.93;2.35;;;;;;;2.78;100.00;101747.91;5112691;28;20047;-51
2023/03/05 05:24:44;;;;;;;9.35;2.10;;;;;;;2.74;100.00;101751.44;5111196;28;20056;-49
2023/03/05 05:27:12;;;;;;;12.55;2.42;;;;;;;2.78;100.00;101747.91;5115371;27;20075;-49
2023/03/05 05:29:40;;;;;;;10.18;2.15;;;;;;;2.84;100.00;101747.78;5112828;28;20447;-50
2023/03/05 05:32:10;;;;;;;8.30;2.35;;;;;;;2.79;100.00;101743.53;5110859;28;20051;-49
2023/03/05 05:34:38;;;;;;;7.18;2.33;;;;;;;2.72;100.00;101742.81;5108452;28;20063;-51
2023/03/05 05:37:06;;;;;;;7.93;2.30;;;;;;;2.74;100.00;101743.63;5112500;28;20055;-48
2023/03/05 05:39:35;;;;;;;7.50;2.13;;;;;;;2.76;100.00;101738.41;5113081;28;20553;-50
2023/03/05 05:42:04;;;;;;;7.93;2.10;;;;;;;2.68;100.00;101731.59;5120314;28;20580;-52
2023/03/05 05:44:33;;;;;;;9.55;2.15;;;;;;;2.73;100.00;101741.91;5121934;28;20493;-51
2023/03/05 05:47:01;;;;;;;9.65;1.98;;;;;;;2.75;100.00;101737.53;5123136;28;20122;-51
2023/03/05 05:49:31;;;;;;;8.50;3.30;;;;;;;2.74;100.00;101729.78;5121806;27;20043;-52
2023/03/05 05:52:00;;;;;;;8.65;2.40;;;;;;;2.76;100.00;101725.44;5118958;28;20498;-51
2023/03/05 05:54:28;;;;;;;7.88;2.50;;;;;;;2.77;100.00;101727.13;5121429;28;20044;-48
2023/03/05 05:56:56;;;;;;;9.40;2.25;;;;;;;2.76;100.00;101731.47;5116274;28;20039;-51
2023/03/05 05:59:24;;;;;;;6.15;1.85;;;;;;;2.76;100.00;101731.47;5126340;28;20048;-48
2023/03/05 06:01:52;;;;;;;6.97;2.05;;;;;;;2.76;100.00;101733.22;5118522;28;20085;-48
2023/03/05 06:04:20;;;;;;;11.90;2.33;;;;;;;2.77;100.00;101725.38;5118087;27;20122;-51
2023/03/05 06:06:53;;;;;;;10.00;2.67;;;;;;;2.78;100.00;101724.50;5121885;27;20133;-53
2023/03/05 06:09:23;;;;;;;7.17;1.80;;;;;;;2.79;100.00;101715.81;5127324;27;20886;-52
2023/03/05 06:11:51;;;;;;;7.38;2.08;;;;;;;2.77;100.00;101730.59;5120708;27;20499;-53
2023/03/05 06:14:19;;;;;;;8.32;2.05;;;;;;;2.75;100.00;101721.09;5123567;27;20046;-52
2023/03/05 06:16:48;;;;;;;5.90;1.80;;;;;;;2.76;100.00;101720.22;5121780;27;20089;-51
2023/03/05 06:19:16;;;;;;;6.50;2.10;;;;;;;2.76;100.00;101720.22;5123391;27;20047;-49
2023/03/05 06:21:44;;;;;;;6.72;1.98;;;;;;;2.78;100.00;101721.91;5123898;27;20050;-52
2023/03/05 06:24:14;;;;;;;9.43;2.08;;;;;;;2.78;100.00;101716.72;5128484;27;20038;-53
2023/03/05 06:26:47;;;;;;;7.72;2.05;;;;;;;2.68;100.00;101720.34;5120274;27;20035;-54
2023/03/05 06:29:15;;;;;;;6.30;1.65;;;;;;;2.72;100.00;101718.56;5129942;27;21057;-54
2023/03/05 06:31:43;;;;;;;9.23;2.63;;;;;;;2.74;100.00;101720.25;5123721;27;20517;-51
2023/03/05 06:34:12;;;;;;;12.23;3.33;;;;;;;2.75;100.00;101715.91;5124812;27;20071;-49
2023/03/05 06:36:41;;;;;;;7.22;2.08;;;;;;;2.76;100.00;101708.09;5126009;27;20589;-50
2023/03/05 06:39:09;;;;;;;9.18;2.28;;;;;;;2.80;100.00;101712.34;5126058;27;20359;-48
2023/03/05 06:41:41;;;;;;;8.30;2.45;;;;;;;2.76;100.00;101708.09;5120575;27;20059;-50
2023/03/05 06:44:12;;;;;;;7.78;1.80;;;;;;;2.77;100.00;101716.72;5122870;27;20039;-51
2023/03/05 06:46:40;;;;;;;7.82;2.28;;;;;;;2.76;100.00;101713.28;5122075;27;20035;-48
2023/03/05 06:49:11;;;;;;;8.27;1.80;;;;;;;2.79;100.00;101714.97;5121466;27;20039;-50
2023/03/05 06:51:41;;;;;;;7.80;2.25;;;;;;;2.77;100.00;101720.19;5128096;27;20053;-49
2023/03/05 06:54:11;;;;;;;9.05;2.10;;;;;;;2.77;100.00;101712.41;5117982;27;20457;-48
2023/03/05 06:56:43;;;;;;;4.53;2.50;;;;;;;2.87;100.00;101711.31;5119141;27;20420;-49
2023/03/05 06:59:12;;;;;;;5.97;1.87;;;;;;;2.83;100.00;101717.47;5128850;27;20035;-49
2023/03/05 07:01:40;;;;;;;7.75;2.10;;;;;;;2.78;100.00;101719.31;5130007;27;20043;-50
2023/03/05 07:04:09;;;;;;;9.68;2.20;;;;;;;2.81;100.00;101716.66;5127190;27;20039;-53
2023/03/05 07:06:38;;;;;;;6.38;1.75;;;;;;;2.81;100.00;101718.38;5131086;27;20120;-51
2023/03/05 07:09:08;;;;;;;5.55;1.95;;;;;;;2.82;100.00;101710.59;5121962;27;20035;-51
2023/03/05 07:11:36;;;;;;;7.13;1.95;;;;;;;2.85;100.00;101707.91;5124028;27;20077;-52
2023/03/05 07:14:06;;;;;;;9.85;2.30;;;;;;;2.85;100.00;101702.72;5124140;27;20118;-53
2023/03/05 07:16:35;;;;;;;9.80;2.80;;;;;;;2.88;100.00;101707.84;5119359;27;20433;-51
2023/03/05 07:19:06;;;;;;;7.90;2.08;;;;;;;2.94;100.00;101700.81;5123768;27;20042;-51
2023/03/05 07:21:35;;;;;;;7.93;2.17;;;;;;;2.95;100.00;101699.94;5119185;27;20054;-52
2023/03/05 07:24:07;;;;;;;7.20;2.15;;;;;;;3.01;100.00;101698.09;5118282;27;20070;-53
2023/03/05 07:26:36;;;;;;;8.60;1.92;;;;;;;3.04;100.00;101703.22;5123079;27;20043;-51
2023/03/05 07:29:06;;;;;;;8.10;2.88;;;;;;;3.07;100.00;101699.69;5127651;27;20043;-53
2023/03/05 07:31:34;;;;;;;12.45;2.60;;;;;;;3.07;100.00;101699.69;5124840;27;20043;-49
2023/03/05 07:34:05;;;;;;;9.88;2.60;;;;;;;3.07;100.00;101698.81;5128113;27;20549;-53
2023/03/05 07:36:33;;;;;;;7.60;2.47;;;;;;;3.09;100.00;101692.72;5121202;27;20486;-49
2023/03/05 07:39:03;;;;;;;7.57;2.25;;;;;;;3.13;100.00;101694.38;5122473;27;20050;-51
2023/03/05 07:41:32;;;;;;;7.85;2.58;;;;;;;3.19;100.00;101696.84;5128435;27;20528;-53
2023/03/05 07:44:02;;;;;;;10.55;2.83;;;;;;;3.18;100.00;101691.69;5124675;27;20039;-52
2023/03/05 07:46:33;;;;;;;8.80;2.80;;;;;;;3.22;100.00;101691.56;5123236;27;20051;-52
2023/03/05 07:49:02;;;;;;;6.85;2.30;;;;;;;3.27;100.00;101694.06;5123520;27;20351;-52
2023/03/05 07:51:32;;;;;;;5.97;2.25;;;;;;;3.29;100.00;101694.06;5129832;27;20043;-54
2023/03/05 07:54:01;;;;;;;8.32;2.33;;;;;;;3.37;100.00;101694.75;5133629;27;20092;-50
2023/03/05 07:56:34;;;;;;;7.50;2.55;;;;;;;3.40;100.00;101689.47;5131590;27;20047;-50
2023/03/05 07:59:04;;;;;;;8.90;2.90;;;;;;;3.48;100.00;101687.56;5128225;27;20035;-48
2023/03/05 08:01:35;;;;;;;8.88;2.40;;;;;;;3.51;100.00;101690.09;5123571;27;20545;-49
2023/03/05 08:04:04;;;;;;;4.78;2.20;;;;;;;3.57;100.00;101685.66;5130833;27;20039;-50
2023/03/05 08:06:33;;;;;;;7.93;2.30;;;;;;;3.59;100.00;101683.88;5134750;27;20086;-52
2023/03/05 08:09:01;;;;;;;7.78;3.17;;;;;;;3.64;100.00;101688.09;5134314;27;20035;-49
2023/03/05 08:11:32;;;;;;;7.13;1.98;;;;;;;3.68;100.00;101679.31;5130473;27;20367;-52
2023/03/05 08:14:00;;;;;;;5.65;2.00;;;;;;;3.70;100.00;101685.34;5131497;27;20047;-49
2023/03/05 08:16:28;;;;;;;6.85;2.10;;;;;;;3.68;100.00;101687.13;5132277;27;20568;-51
2023/03/05 08:18:58;;;;;;;7.05;2.08;;;;;;;3.67;100.00;101687.16;5132229;27;20047;-51
2023/03/05 08:21:29;;;;;;;7.05;1.70;;;;;;;3.64;100.00;101680.28;5137772;27;20041;-49
2023/03/05 08:23:58;;;;;;;7.80;2.00;;;;;;;3.71;100.00;101681.00;5134537;27;20039;-51
2023/03/05 08:26:28;;;;;;;3.63;1.73;;;;;;;3.70;100.00;101674.94;5134213;27;20035;-50
2023/03/05 08:28:57;;;;;;;5.07;1.73;;;;;;;3.68;100.00;101681.94;5133444;27;20046;-51
2023/03/05 08:31:28;;;;;;;7.38;2.22;;;;;;;3.75;100.00;101684.38;5128674;27;20088;-53
2023/03/05 08:34:01;;;;;;;7.00;2.13;;;;;;;3.84;100.00;101684.16;5123761;27;20043;-52
2023/03/05 08:36:30;;;;;;;14.85;3.53;;;;;;;3.92;100.00;101678.78;5125316;27;20153;-52
2023/03/05 08:38:58;;;;;;;7.68;2.50;;;;;;;3.92;100.00;101678.78;5122486;27;20643;-52
2023/03/05 08:41:27;;;;;;;8.55;2.92;;;;;;;3.99;100.00;101675.13;5117748;27;20512;-51
2023/03/05 08:43:55;;;;;;;8.20;2.40;;;;;;;4.05;100.00;101677.59;5119759;27;20039;-50
2023/03/05 08:46:24;;;;;;;6.00;1.98;;;;;;;4.09;100.00;101675.75;5124811;27;20432;-51
2023/03/05 08:48:52;;;;;;;9.00;2.13;;;;;;;4.05;100.00;101672.41;5120712;27;20066;-53
2023/03/05 08:51:24;;;;;;;5.82;2.80;;;;;;;4.16;100.00;101667.78;5123163;27;20078;-51
2023/03/05 08:53:54;;;;;;;7.25;1.98;;;;;;;4.21;100.00;101671.13;5118561;27;20070;-53
2023/03/05 08:56:22;;;;;;;5.45;2.08;;;;;;;4.33;100.00;101662.13;5119662;27;20059;-50
2023/03/05 08:58:51;;;;;;;6.70;2.10;;;;;;;4.53;100.00;101658.16;5119880;27;20084;-52
2023/03/05 09:01:21;;;;;;;6.05;1.90;;;;;;;4.66;100.00;101650.84;5118948;27;20062;-50
2023/03/05 09:03:49;;;;;;;3.53;1.70;;;;;;;4.80;100.00;101658.28;5115375;27;20082;-53
2023/03/05 09:06:17;;;;;;;5.07;1.67;;;;;;;4.89;100.00;101651.06;5122911;27;20071;-51
2023/03/05 09:08:49;;;;;;;5.20;1.90;;;;;;;4.98;100.00;101643.88;5112038;27;20044;-51
2023/03/05 09:11:18;;;;;;;6.22;1.70;;;;;;;5.05;100.00;101640.19;5122652;27;20038;-49
2023/03/05 09:13:46;;;;;;;4.50;1.50;;;;;;;5.02;100.00;101640.28;5118978;27;20450;-52
2023/03/05 09:16:17;;;;;;;7.93;1.92;;;;;;;4.88;100.00;101631.09;5119544;27;20421;-54
2023/03/05 09:18:45;;;;;;;6.20;1.88;;;;;;;4.98;100.00;101633.47;5127290;27;20053;-51
2023/03/05 09:21:16;;;;;;;8.35;1.88;;;;;;;4.94;100.00;101632.69;5128869;27;20057;-48
2023/03/05 09:23:47;;;;;;;3.17;1.45;;;;;;;5.10;100.00;101627.00;5128253;27;20391;-52
2023/03/05 09:26:19;;;;;;;5.05;1.50;;;;;;;5.15;100.00;101630.34;5126473;27;20043;-51
2023/03/05 09:28:48;;;;;;;5.27;1.90;;;;;;;5.19;100.00;101627.56;5130296;27;20223;-49
2023/03/05 09:31:16;;;;;;;8.18;1.80;;;;;;;5.24;100.00;101630.91;5129803;27;20035;-50
2023/03/05 09:33:48;;;;;;;4.82;1.42;;;;;;;5.20;100.00;101624.06;5122462;27;20043;-50
2023/03/05 09:36:19;;;;;;;7.47;1.50;;;;;;;5.27;100.00;101621.28;5126244;28;20077;-49
2023/03/05 09:38:47;;;;;;;5.10;1.70;;;;;;;5.40;100.00;101622.63;5122326;27;20051;-51
2023/03/05 09:41:28;;;;;;;4.35;1.55;;;;;;;5.31;100.00;101620.31;5125722;27;20055;-52
2023/03/05 09:44:07;;;;;;;4.18;1.55;;;;;;;5.30;100.00;101614.22;5133671;27;20054;-50
2023/03/05 09:46:49;;;;;;;3.30;1.30;;;;;;;5.37;100.00;101626.19;5134944;27;20046;-53
2023/03/05 09:49:23;;;;;;;6.82;1.40;;;;;;;5.48;100.00;101614.53;5134138;27;20043;-52
2023/03/05 09:51:57;;;;;;;7.63;1.77;;;;;;;5.51;100.00;101617.09;5125932;27;20093;-51
2023/03/05 09:54:32;;;;;;;7.07;1.50;;;;;;;5.69;100.00;101618.25;5133401;27;20047;-50
2023/03/05 09:57:05;;;;;;;7.25;1.70;;;;;;;5.73;100.00;101620.69;5134697;27;20038;-52
2023/03/05 09:59:43;;;;;;;5.10;1.55;;;;;;;5.77;100.00;101616.25;5116655;27;20048;-51
2023/03/05 10:02:18;;;;;;;3.22;1.10;;;;;;;5.62;100.00;101606.28;5124942;27;20044;-48
2023/03/05 10:04:52;;;;;;;3.80;1.55;;;;;;;5.72;100.00;101608.53;5123038;27;20044;-50
2023/03/05 10:07:25;;;;;;;4.03;1.30;;;;;;;5.74;100.00;101608.50;5116541;27;20062;-50
2023/03/05 10:09:57;;;;;;;6.07;1.52;;;;;;;5.85;100.00;101608.13;5118104;27;20398;-50
2023/03/05 10:12:41;;;;;;;5.60;2.08;;;;;;;5.94;100.00;101597.38;5116561;28;20506;-49
2023/03/05 10:15:13;;;;;;;4.10;1.48;;;;;;;6.15;100.00;101589.75;5114931;28;20054;-51
2023/03/05 10:18:05;;;;;;;7.03;1.73;;;;;;;6.30;100.00;101590.97;5116080;28;20043;-47
2023/03/05 10:20:55;;;;;;;6.85;1.75;;;;;;;6.39;100.00;101591.53;5116123;28;20039;-49
2023/03/05 10:23:28;;;;;;;4.55;1.40;;;;;;;6.44;100.00;101578.28;5116206;28;20045;-52
2023/03/05 10:26:08;;;;;;;6.00;1.42;;;;;;;6.60;100.00;101578.59;5116331;28;20035;-51
2023/03/05 10:28:47;;;;;;;4.18;1.70;;;;;;;6.64;100.00;101579.31;5116096;28;20047;-52
2023/03/05 10:31:33;;;;;;;5.38;1.40;;;;;;;6.71;100.00;101570.34;5115966;28;20128;-48
2023/03/05 10:34:24;;;;;;;3.08;1.15;;;;;;;6.80;100.00;101572.59;5116111;28;20048;-51
2023/03/05 10:37:02;;;;;;;16.45;13.93;;;;;;;6.86;100.00;101566.31;5115775;28;20051;-50
2023/03/05 10:39:56;;;;;;;6.78;2.25;;;;;;;6.91;100.00;101567.84;5115096;28;20109;-52
2023/03/05 10:42:33;;;;;;;3.53;1.40;;;;;;;6.87;100.00;101565.38;5112942;28;20047;-53
2023/03/05 10:45:13;;;;;;;4.75;1.42;;;;;;;6.73;100.00;101566.75;5114634;28;20043;-52
2023/03/05 10:47:47;;;;;;;5.53;1.73;;;;;;;6.79;100.00;101568.31;5115455;28;20096;-52
2023/03/05 10:50:18;;;;;;;3.35;1.20;;;;;;;6.76;100.00;101564.03;5114233;28;20040;-52
2023/03/05 10:52:52;;;;;;;3.80;1.40;;;;;;;6.70;100.00;101559.03;5115525;28;20043;-52
2023/03/05 10:55:22;;;;;;;3.83;1.30;;;;;;;6.74;100.00;101554.53;5113963;28;20052;-51
2023/03/05 10:57:50;;;;;;;5.30;1.75;;;;;;;6.76;100.00;101552.72;5112047;28;20074;-51
2023/03/05 11:00:22;;;;;;;3.33;1.30;;;;;;;6.78;100.00;101545.69;5115261;28;20071;-54
2023/03/05 11:02:58;;;;;;;5.68;1.60;;;;;;;6.84;100.00;101545.44;5115490;28;20047;-50
2023/03/05 11:05:39;;;;;;;3.72;1.20;;;;;;;6.75;100.00;101536.19;5115429;28;20077;-51
2023/03/05 11:08:27;;;;;;;3.70;1.27;;;;;;;6.86;100.00;101540.16;5115252;28;20142;-51
2023/03/05 11:11:11;;;;;;;4.63;1.50;;;;;;;6.80;100.00;101538.63;5115135;27;20818;-49
2023/03/05 11:13:51;;;;;;;7.50;1.58;;;;;;;6.79;100.00;101533.44;5111914;28;20055;-49
2023/03/05 11:16:25;;;;;;;3.63;1.30;;;;;;;6.93;100.00;101526.78;5110368;28;20060;-52
2023/03/05 11:19:15;;;;;;;3.88;1.45;;;;;;;7.07;100.00;101525.38;5111897;28;20143;-49
2023/03/05 11:21:47;;;;;;;4.85;1.38;;;;;;;7.17;100.00;101513.66;5112167;28;20039;-50
2023/03/05 11:24:17;;;;;;;3.38;1.55;;;;;;;7.06;100.00;101519.31;5113481;28;20837;-49
2023/03/05 11:26:48;;;;;;;4.28;1.50;;;;;;;7.46;100.00;101511.63;5111635;28;20126;-48
2023/03/05 11:29:20;;;;;;;3.08;1.17;;;;;;;7.63;100.00;101507.44;5114588;28;20052;-51
2023/03/05 11:31:50;;;;;;;3.88;1.20;;;;;;;7.64;100.00;101501.28;5113820;28;20154;-50
2023/03/05 11:34:27;;;;;;;5.90;1.17;;;;;;;7.74;100.00;101499.97;5111508;28;20567;-52
2023/03/05 11:37:05;;;;;;;4.20;0.90;;;;;;;7.81;100.00;101501.41;5113287;28;20043;-51
2023/03/05 11:39:37;;;;;;;5.15;1.40;;;;;;;8.00;100.00;101493.59;5112401;28;20039;-51